createdAt,value
2023-01-29T00:00:21.809Z,90.96
2023-01-29T00:02:48.288Z,92.18
2023-01-29T00:05:27.058Z,91.65
2023-01-29T00:07:54.984Z,91.76
2023-01-29T00:10:21.327Z,92.03
2023-01-29T00:12:47.665Z,91.93
2023-01-29T00:15:14.005Z,91.48
2023-01-29T00:17:40.347Z,91.42
2023-01-29T00:20:06.872Z,91.38
2023-01-29T00:22:33.262Z,91.60
2023-01-29T00:24:59.747Z,91.04
2023-01-29T00:27:26.127Z,91.59
2023-01-29T00:30:09.558Z,91.24
2023-01-29T00:32:36.208Z,91.40
2023-01-29T00:35:02.759Z,91.18
2023-01-29T00:37:29.179Z,91.04
2023-01-29T00:39:55.573Z,91.58
2023-01-29T00:42:40.640Z,91.04
2023-01-29T00:45:07.463Z,90.92
2023-01-29T00:47:33.991Z,90.81
2023-01-29T00:50:01.545Z,90.36
2023-01-29T00:52:27.960Z,90.18
2023-01-29T00:54:58.955Z,90.01
2023-01-29T00:57:26.821Z,90.49
2023-01-29T01:02:48.068Z,91.06
2023-01-29T01:05:18.126Z,91.22
2023-01-29T01:07:45.573Z,90.88
2023-01-29T01:10:22.771Z,91.27
2023-01-29T01:12:50.850Z,91.71
2023-01-29T01:15:17.728Z,90.81
2023-01-29T01:17:44.156Z,90.79
2023-01-29T01:20:11.229Z,91.51
2023-01-29T01:22:37.589Z,90.13
2023-01-29T01:25:04.098Z,90.31
2023-01-29T01:27:30.650Z,87.58
2023-01-29T01:29:57.062Z,87.76
2023-01-29T01:32:23.602Z,87.29
2023-01-29T01:34:51.690Z,88.38
2023-01-29T01:37:19.065Z,88.38
2023-01-29T01:39:48.883Z,88.83
2023-01-29T01:42:15.364Z,88.98
2023-01-29T01:44:53.889Z,88.93
2023-01-29T01:47:35.496Z,89.18
2023-01-29T01:50:08.435Z,89.12
2023-01-29T01:52:36.549Z,89.84
2023-01-29T01:55:03.408Z,89.63
2023-01-29T01:57:31.288Z,90.34
2023-01-29T02:00:11.095Z,90.51
2023-01-29T02:03:00.684Z,90.69
2023-01-29T02:05:46.179Z,89.75
2023-01-29T02:08:31.582Z,89.32
2023-01-29T02:10:58.062Z,89.73
2023-01-29T02:13:24.641Z,89.22
2023-01-29T02:15:51.090Z,89.67
2023-01-29T02:18:19.210Z,88.58
2023-01-29T02:20:50.010Z,88.77
2023-01-29T02:23:34.798Z,89.25
2023-01-29T02:26:20.731Z,89.15
2023-01-29T02:29:22.643Z,89.53
2023-01-29T02:31:54.677Z,89.81
2023-01-29T02:34:27.317Z,89.90
2023-01-29T02:37:02.807Z,89.44
2023-01-29T02:39:34.156Z,90.21
2023-01-29T02:42:19.150Z,89.74
2023-01-29T02:44:52.180Z,90.12
2023-01-29T02:47:21.538Z,89.90
2023-01-29T02:49:51.248Z,89.81
2023-01-29T02:52:27.767Z,90.39
2023-01-29T02:55:14.399Z,90.44
2023-01-29T02:57:42.193Z,90.36
2023-01-29T03:00:17.822Z,90.58
2023-01-29T03:02:50.350Z,90.96
2023-01-29T03:05:18.182Z,90.93
2023-01-29T03:07:52.072Z,91.15
2023-01-29T03:10:21.752Z,90.71
2023-01-29T03:13:02.961Z,91.18
2023-01-29T03:15:38.616Z,91.36
2023-01-29T03:18:17.619Z,91.33
2023-01-29T03:20:48.117Z,90.87
2023-01-29T03:23:23.753Z,91.03
2023-01-29T03:26:12.259Z,91.27
2023-01-29T03:28:58.636Z,91.33
2023-01-29T03:31:45.065Z,91.40
2023-01-29T03:34:16.625Z,91.59
2023-01-29T03:36:56.124Z,91.57
2023-01-29T03:39:28.393Z,91.81
2023-01-29T03:41:54.775Z,91.67
2023-01-29T03:44:28.605Z,91.92
2023-01-29T03:47:04.799Z,92.22
2023-01-29T03:49:39.170Z,92.05
2023-01-29T03:52:08.608Z,91.97
2023-01-29T03:54:44.589Z,92.21
2023-01-29T03:57:15.516Z,92.08
2023-01-29T04:00:15.126Z,92.35
2023-01-29T04:02:55.484Z,92.62
2023-01-29T04:05:24.458Z,92.75
2023-01-29T04:07:54.294Z,92.68
2023-01-29T04:10:24.809Z,92.58
2023-01-29T04:12:55.335Z,92.35
2023-01-29T04:15:22.606Z,92.90
2023-01-29T04:17:51.759Z,92.68
2023-01-29T04:20:18.609Z,93.19
2023-01-29T04:22:49.876Z,92.96
2023-01-29T04:25:17.915Z,92.08
2023-01-29T04:28:02.531Z,92.19
2023-01-29T04:30:35.899Z,92.14
2023-01-29T04:33:12.629Z,92.48
2023-01-29T04:35:46.371Z,92.01
2023-01-29T04:38:33.160Z,92.10
2023-01-29T04:41:11.355Z,92.41
2023-01-29T04:43:43.543Z,92.46
2023-01-29T04:46:13.062Z,92.20
2023-01-29T04:48:47.736Z,92.38
2023-01-29T04:51:25.053Z,92.07
2023-01-29T04:53:57.431Z,92.66
2023-01-29T04:56:29.668Z,92.92
2023-01-29T04:59:00.909Z,92.62
2023-01-29T05:01:30.227Z,92.60
2023-01-29T05:03:57.457Z,92.88
2023-01-29T05:06:25.084Z,92.89
2023-01-29T05:08:53.871Z,92.93
2023-01-29T05:11:20.442Z,92.76
2023-01-29T05:13:48.616Z,92.98
2023-01-29T05:16:24.414Z,92.84
2023-01-29T05:18:51.064Z,93.08
2023-01-29T05:21:17.584Z,93.04
2023-01-29T05:23:53.331Z,93.72
2023-01-29T05:26:39.822Z,93.41
2023-01-29T05:29:06.189Z,93.54
2023-01-29T05:31:32.676Z,93.19
2023-01-29T05:33:59.047Z,93.61
2023-01-29T05:36:26.862Z,93.11
2023-01-29T05:38:53.205Z,93.28
2023-01-29T05:41:19.944Z,93.06
2023-01-29T05:43:46.635Z,93.41
2023-01-29T05:46:13.028Z,93.58
2023-01-29T05:48:39.423Z,93.65
2023-01-29T05:51:05.840Z,94.07
2023-01-29T05:53:32.590Z,94.17
2023-01-29T05:56:01.163Z,94.19
2023-01-29T05:58:27.615Z,94.05
2023-01-29T06:00:53.957Z,93.56
2023-01-29T06:03:20.392Z,93.92
2023-01-29T06:05:46.872Z,93.70
2023-01-29T06:08:13.397Z,93.37
2023-01-29T06:10:39.878Z,93.70
2023-01-29T06:13:07.033Z,93.39
2023-01-29T06:15:33.393Z,93.17
2023-01-29T06:17:59.879Z,92.96
2023-01-29T06:20:26.227Z,93.06
2023-01-29T06:22:52.565Z,92.86
2023-01-29T06:25:18.931Z,92.95
2023-01-29T06:27:45.343Z,92.76
2023-01-29T06:30:11.949Z,93.09
2023-01-29T06:32:38.364Z,92.81
2023-01-29T06:35:04.958Z,93.03
2023-01-29T06:37:31.360Z,92.74
2023-01-29T06:39:57.724Z,92.52
2023-01-29T06:42:27.952Z,93.00
2023-01-29T06:44:57.619Z,92.35
2023-01-29T06:47:24.190Z,92.59
2023-01-29T06:49:50.656Z,92.85
2023-01-29T06:52:17.016Z,92.52
2023-01-29T06:54:43.395Z,92.57
2023-01-29T06:57:09.825Z,92.68
2023-01-29T06:59:36.187Z,92.51
2023-01-29T07:02:03.602Z,92.34
2023-01-29T07:04:30.094Z,92.48
2023-01-29T07:06:56.468Z,92.83
2023-01-29T07:09:22.793Z,92.69
2023-01-29T07:11:49.343Z,92.35
2023-01-29T07:14:15.660Z,92.68
2023-01-29T07:16:42.075Z,92.58
2023-01-29T07:19:08.778Z,92.63
2023-01-29T07:21:37.806Z,92.73
2023-01-29T07:24:04.330Z,93.04
2023-01-29T07:26:30.813Z,92.96
2023-01-29T07:28:57.131Z,93.12
2023-01-29T07:31:23.520Z,93.29
2023-01-29T07:33:49.968Z,93.43
2023-01-29T07:36:16.597Z,92.25
2023-01-29T07:38:43.036Z,92.39
2023-01-29T07:41:11.096Z,92.32
2023-01-29T07:43:37.540Z,92.92
2023-01-29T07:46:04.517Z,92.63
2023-01-29T07:48:31.030Z,92.45
2023-01-29T07:50:57.475Z,92.63
2023-01-29T07:53:23.890Z,92.92
2023-01-29T07:55:50.484Z,93.35
2023-01-29T07:58:17.047Z,93.28
2023-01-29T08:00:43.761Z,93.06
2023-01-29T08:03:12.126Z,93.23
2023-01-29T08:05:38.865Z,92.62
2023-01-29T08:08:07.249Z,93.02
2023-01-29T08:10:38.491Z,93.30
2023-01-29T08:13:05.067Z,92.36
2023-01-29T08:15:31.816Z,92.89
2023-01-29T08:17:58.612Z,92.57
2023-01-29T08:20:25.589Z,92.85
2023-01-29T08:22:59.366Z,93.47
2023-01-29T08:25:26.039Z,92.53
2023-01-29T08:27:52.558Z,92.07
2023-01-29T08:30:18.911Z,91.85
2023-01-29T08:32:45.302Z,92.24
2023-01-29T08:35:11.630Z,92.14
2023-01-29T08:37:37.969Z,91.98
2023-01-29T08:40:04.579Z,92.51
2023-01-29T08:42:30.932Z,92.27
2023-01-29T08:44:57.246Z,91.54
2023-01-29T08:47:23.763Z,92.33
2023-01-29T08:49:50.099Z,92.61
2023-01-29T08:52:16.443Z,92.20
2023-01-29T08:54:42.833Z,92.48
2023-01-29T08:57:09.158Z,91.97
2023-01-29T08:59:35.482Z,91.91
2023-01-29T09:02:01.902Z,91.77
2023-01-29T09:04:28.255Z,91.85
2023-01-29T09:06:54.588Z,92.97
2023-01-29T09:09:20.951Z,92.29
2023-01-29T09:11:47.275Z,91.55
2023-01-29T09:14:14.538Z,90.96
2023-01-29T09:16:41.174Z,91.58
2023-01-29T09:19:08.311Z,91.00
2023-01-29T09:21:34.694Z,91.19
2023-01-29T09:24:01.053Z,90.73
2023-01-29T09:26:27.488Z,91.39
2023-01-29T09:28:53.908Z,91.44
2023-01-29T09:31:20.392Z,91.08
2023-01-29T09:33:46.879Z,91.10
2023-01-29T09:36:13.285Z,91.89
2023-01-29T09:38:39.657Z,91.45
2023-01-29T09:41:09.019Z,91.94
2023-01-29T09:43:53.155Z,91.86
2023-01-29T09:46:28.751Z,91.41
2023-01-29T09:49:01.958Z,92.10
2023-01-29T09:51:30.543Z,91.14
2023-01-29T09:54:12.801Z,91.03
2023-01-29T09:56:39.150Z,91.18
2023-01-29T09:59:05.540Z,90.71
2023-01-29T10:01:34.989Z,91.29
2023-01-29T10:04:07.293Z,91.20
2023-01-29T10:06:43.620Z,90.79
2023-01-29T10:09:09.982Z,91.08
2023-01-29T10:11:57.937Z,90.53
2023-01-29T10:14:50.730Z,90.75
2023-01-29T10:17:39.595Z,90.86
2023-01-29T10:20:16.758Z,91.02
2023-01-29T10:22:43.093Z,90.75
2023-01-29T10:25:20.667Z,90.30
2023-01-29T10:27:51.946Z,90.94
2023-01-29T10:30:29.815Z,90.16
2023-01-29T10:32:58.367Z,91.07
2023-01-29T10:35:28.139Z,91.06
2023-01-29T10:37:54.901Z,90.17
2023-01-29T10:40:24.075Z,90.47
2023-01-29T10:43:19.994Z,91.29
2023-01-29T10:45:50.518Z,90.96
2023-01-29T10:48:35.311Z,91.81
2023-01-29T10:51:07.126Z,92.28
2023-01-29T10:53:53.365Z,91.05
2023-01-29T10:56:23.236Z,91.96
2023-01-29T10:58:50.195Z,91.64
2023-01-29T11:01:16.698Z,92.75
2023-01-29T11:03:43.231Z,91.56
2023-01-29T11:06:12.884Z,91.22
2023-01-29T11:08:58.956Z,91.64
2023-01-29T11:11:31.339Z,91.21
2023-01-29T11:14:00.205Z,91.84
2023-01-29T11:16:29.903Z,92.05
2023-01-29T11:18:57.663Z,92.19
2023-01-29T11:21:25.103Z,91.76
2023-01-29T11:24:04.887Z,92.57
2023-01-29T11:26:34.285Z,92.49
2023-01-29T11:29:00.635Z,92.28
2023-01-29T11:31:29.090Z,92.36
2023-01-29T11:34:03.507Z,92.25
2023-01-29T11:36:38.381Z,92.89
2023-01-29T11:39:13.707Z,91.64
2023-01-29T11:42:08.313Z,92.38
2023-01-29T11:44:38.761Z,91.88
2023-01-29T11:47:12.861Z,92.01
2023-01-29T11:49:40.193Z,91.86
2023-01-29T11:52:08.987Z,91.74
2023-01-29T11:54:41.507Z,92.20
2023-01-29T11:57:20.171Z,92.25
2023-01-29T11:59:49.982Z,92.41
2023-01-29T12:02:23.632Z,92.68
2023-01-29T12:04:50.512Z,92.64
2023-01-29T12:07:18.150Z,92.73
2023-01-29T12:09:52.762Z,92.42
2023-01-29T12:12:29.955Z,92.30
2023-01-29T12:15:16.548Z,92.80
2023-01-29T12:17:45.337Z,92.79
2023-01-29T12:20:15.186Z,93.24
2023-01-29T12:23:00.900Z,93.41
2023-01-29T12:25:33.413Z,93.91
2023-01-29T12:28:19.151Z,94.02
2023-01-29T12:31:03.825Z,93.73
2023-01-29T12:33:44.106Z,92.58
2023-01-29T12:36:13.305Z,93.96
2023-01-29T12:38:41.139Z,93.83
2023-01-29T12:41:21.550Z,92.57
2023-01-29T12:43:50.147Z,92.00
2023-01-29T12:46:26.340Z,92.53
2023-01-29T12:48:54.648Z,92.53
2023-01-29T12:51:25.405Z,92.94
2023-01-29T12:54:06.937Z,92.57
2023-01-29T12:56:37.051Z,92.19
2023-01-29T12:59:23.665Z,92.31
2023-01-29T13:01:58.337Z,93.07
2023-01-29T13:04:35.289Z,93.47
2023-01-29T13:07:11.289Z,92.11
2023-01-29T13:09:38.979Z,92.26
2023-01-29T13:12:11.353Z,92.97
2023-01-29T13:14:54.197Z,91.85
2023-01-29T13:17:20.524Z,92.00
2023-01-29T13:19:49.627Z,91.69
2023-01-29T13:22:24.455Z,91.65
2023-01-29T13:25:03.601Z,92.18
2023-01-29T13:27:33.186Z,91.95
2023-01-29T13:29:59.926Z,92.30
2023-01-29T13:32:30.744Z,92.48
2023-01-29T13:35:03.151Z,92.09
2023-01-29T13:37:32.534Z,92.31
2023-01-29T13:40:00.093Z,92.49
2023-01-29T13:42:37.319Z,92.12
2023-01-29T13:45:05.428Z,92.09
2023-01-29T13:47:33.574Z,91.63
2023-01-29T13:50:01.990Z,92.10
2023-01-29T13:53:02.086Z,91.64
2023-01-29T13:55:31.483Z,92.12
2023-01-29T13:58:01.821Z,92.79
2023-01-29T14:00:34.253Z,91.93
2023-01-29T14:03:00.626Z,92.27
2023-01-29T14:05:29.860Z,91.81
2023-01-29T14:08:02.650Z,91.84
2023-01-29T14:10:30.406Z,91.90
2023-01-29T14:13:15.601Z,92.41
2023-01-29T14:15:41.934Z,92.72
2023-01-29T14:18:08.395Z,92.26
2023-01-29T14:20:47.042Z,92.90
2023-01-29T14:23:19.572Z,92.71
2023-01-29T14:25:46.169Z,92.67
2023-01-29T14:28:20.019Z,93.00
2023-01-29T14:30:48.031Z,92.91
2023-01-29T14:33:31.247Z,92.91
2023-01-29T14:35:57.990Z,92.90
2023-01-29T14:38:26.336Z,93.26
2023-01-29T14:41:02.313Z,92.73
2023-01-29T14:43:28.847Z,93.05
2023-01-29T14:45:55.228Z,93.12
2023-01-29T14:48:46.469Z,92.87
2023-01-29T14:51:14.234Z,92.03
2023-01-29T14:53:40.612Z,92.33
2023-01-29T14:56:09.990Z,92.66
2023-01-29T14:58:38.485Z,92.59
2023-01-29T15:01:15.786Z,92.97
2023-01-29T15:03:45.195Z,93.15
2023-01-29T15:06:16.301Z,93.04
2023-01-29T15:09:11.932Z,92.98
2023-01-29T15:12:00.522Z,93.27
2023-01-29T15:14:33.881Z,93.65
2023-01-29T15:17:17.408Z,93.77
2023-01-29T15:19:48.496Z,93.61
2023-01-29T15:22:19.082Z,93.56
2023-01-29T15:24:46.731Z,94.20
2023-01-29T15:27:18.753Z,93.28
2023-01-29T15:29:48.610Z,93.30
2023-01-29T15:32:18.002Z,93.65
2023-01-29T15:34:44.382Z,92.94
2023-01-29T15:37:31.070Z,93.00
2023-01-29T15:39:58.459Z,92.67
2023-01-29T15:42:26.839Z,93.13
2023-01-29T15:44:56.230Z,92.87
2023-01-29T15:47:24.985Z,93.08
2023-01-29T15:49:52.087Z,93.20
2023-01-29T15:52:23.575Z,93.34
2023-01-29T15:54:50.790Z,93.25
2023-01-29T15:57:29.385Z,93.40
2023-01-29T15:59:57.731Z,93.19
2023-01-29T16:02:40.459Z,93.55
2023-01-29T16:05:24.306Z,93.71
2023-01-29T16:07:51.720Z,93.88
2023-01-29T16:10:23.055Z,94.12
2023-01-29T16:12:53.237Z,94.31
2023-01-29T16:15:33.584Z,94.36
2023-01-29T16:18:00.723Z,94.36
2023-01-29T16:20:31.165Z,94.14
2023-01-29T16:22:58.132Z,94.59
2023-01-29T16:25:24.713Z,93.93
2023-01-29T16:27:51.602Z,94.41
2023-01-29T16:30:18.320Z,94.12
2023-01-29T16:32:44.883Z,94.40
2023-01-29T16:35:17.711Z,94.21
2023-01-29T16:37:47.937Z,94.27
2023-01-29T16:40:16.249Z,93.70
2023-01-29T16:42:42.768Z,93.75
2023-01-29T16:45:29.478Z,94.05
2023-01-29T16:48:20.496Z,93.89
2023-01-29T16:50:55.141Z,94.10
2023-01-29T16:53:24.569Z,94.22
2023-01-29T16:55:52.423Z,94.16
2023-01-29T16:58:24.927Z,93.84
2023-01-29T17:00:56.754Z,93.97
2023-01-29T17:03:25.586Z,93.99
2023-01-29T17:05:52.521Z,94.00
2023-01-29T17:08:32.586Z,94.01
2023-01-29T17:10:59.681Z,93.97
2023-01-29T17:13:34.230Z,94.06
2023-01-29T17:16:02.880Z,94.31
2023-01-29T17:18:29.739Z,94.01
2023-01-29T17:20:56.189Z,93.75
2023-01-29T17:23:22.579Z,93.56
2023-01-29T17:25:48.988Z,93.37
2023-01-29T17:28:16.835Z,93.33
2023-01-29T17:30:46.450Z,93.45
2023-01-29T17:33:21.725Z,93.27
2023-01-29T17:35:48.540Z,92.63
2023-01-29T17:38:25.614Z,92.47
2023-01-29T17:41:13.898Z,93.35
2023-01-29T17:43:40.436Z,92.59
2023-01-29T17:46:09.907Z,93.45
2023-01-29T17:48:36.321Z,93.46
2023-01-29T17:51:03.716Z,93.48
2023-01-29T17:53:44.124Z,92.63
2023-01-29T17:56:27.410Z,92.67
2023-01-29T17:58:53.947Z,92.82
2023-01-29T18:01:20.446Z,92.29
2023-01-29T18:03:46.867Z,92.20
2023-01-29T18:06:20.201Z,92.22
2023-01-29T18:08:46.634Z,91.27
2023-01-29T18:11:13.279Z,90.99
2023-01-29T18:13:41.912Z,91.21
2023-01-29T18:16:08.362Z,90.76
2023-01-29T18:18:35.023Z,91.01
2023-01-29T18:21:01.397Z,90.93
2023-01-29T18:23:29.502Z,90.50
2023-01-29T18:25:57.671Z,90.71
2023-01-29T18:28:24.819Z,90.16
2023-01-29T18:30:51.293Z,90.52
2023-01-29T18:33:18.067Z,89.38
2023-01-29T18:35:45.056Z,89.64
2023-01-29T18:38:11.566Z,89.90
2023-01-29T18:40:37.907Z,89.44
2023-01-29T18:43:04.294Z,89.58
2023-01-29T18:45:30.807Z,90.35
2023-01-29T18:47:57.710Z,89.79
2023-01-29T18:50:25.040Z,90.31
2023-01-29T18:52:51.550Z,89.85
2023-01-29T18:55:18.207Z,89.82
2023-01-29T18:58:27.151Z,90.90
2023-01-29T19:00:31.064Z,90.64
2023-01-29T19:02:57.447Z,90.98
2023-01-29T19:05:25.536Z,90.27
2023-01-29T19:07:52.517Z,90.52
2023-01-29T19:10:19.170Z,90.08
2023-01-29T19:12:45.634Z,90.57
2023-01-29T19:15:12.136Z,91.16
2023-01-29T19:17:38.940Z,91.44
2023-01-29T19:20:05.497Z,91.25
2023-01-29T19:22:32.443Z,91.96
2023-01-29T19:24:58.941Z,91.33
2023-01-29T19:27:30.221Z,91.24
2023-01-29T19:29:59.824Z,91.29
2023-01-29T19:32:28.067Z,91.02
2023-01-29T19:34:54.805Z,90.96
2023-01-29T19:37:21.215Z,91.17
2023-01-29T19:39:47.559Z,91.64
2023-01-29T19:42:13.940Z,91.82
2023-01-29T19:44:40.421Z,91.08
2023-01-29T19:47:06.899Z,91.03
2023-01-29T19:49:34.264Z,90.91
2023-01-29T19:52:01.316Z,90.58
2023-01-29T19:54:27.930Z,90.17
2023-01-29T19:56:54.530Z,90.13
2023-01-29T19:59:21.110Z,90.62
2023-01-29T20:01:47.604Z,89.62
2023-01-29T20:04:14.107Z,89.65
2023-01-29T20:06:40.620Z,89.83
2023-01-29T20:09:07.448Z,89.95
2023-01-29T20:11:34.364Z,89.49
2023-01-29T20:14:00.820Z,89.96
2023-01-29T20:16:27.378Z,89.70
2023-01-29T20:18:54.084Z,89.49
2023-01-29T20:21:22.089Z,89.61
2023-01-29T20:23:50.788Z,89.32
2023-01-29T20:26:17.444Z,89.23
2023-01-29T20:28:45.550Z,89.19
2023-01-29T20:31:12.039Z,89.00
2023-01-29T20:33:39.667Z,89.18
2023-01-29T20:36:07.305Z,89.18
2023-01-29T20:38:34.665Z,89.36
2023-01-29T20:41:05.252Z,88.80
2023-01-29T20:43:32.001Z,89.43
2023-01-29T20:45:58.594Z,89.34
2023-01-29T20:48:25.170Z,89.40
2023-01-29T20:50:51.603Z,89.65
2023-01-29T20:53:18.039Z,89.90
2023-01-29T20:55:44.923Z,89.81
2023-01-29T20:58:11.438Z,89.95
2023-01-29T21:00:38.917Z,89.92
2023-01-29T21:03:05.364Z,89.51
2023-01-29T21:05:32.363Z,89.53
2023-01-29T21:07:58.797Z,89.37
2023-01-29T21:10:25.358Z,89.81
2023-01-29T21:12:51.757Z,90.37
2023-01-29T21:15:18.194Z,90.04
2023-01-29T21:17:44.633Z,89.63
2023-01-29T21:20:11.376Z,90.08
2023-01-29T21:22:37.785Z,89.62
2023-01-29T21:25:04.369Z,89.65
2023-01-29T21:27:30.797Z,89.58
2023-01-29T21:29:57.435Z,89.57
2023-01-29T21:32:23.997Z,88.80
2023-01-29T21:34:52.622Z,88.72
2023-01-29T21:37:19.156Z,88.66
2023-01-29T21:39:46.134Z,88.37
2023-01-29T21:42:31.281Z,88.29
2023-01-29T21:44:57.782Z,88.03
2023-01-29T21:47:24.299Z,88.60
2023-01-29T21:49:50.763Z,88.35
2023-01-29T21:52:17.227Z,87.91
2023-01-29T21:54:49.052Z,87.90
2023-01-29T21:57:16.200Z,87.90
2023-01-29T21:59:43.020Z,88.59
2023-01-29T22:02:15.129Z,88.74
2023-01-29T22:04:42.326Z,88.37
2023-01-29T22:07:09.834Z,88.07
2023-01-29T22:09:36.425Z,88.08
2023-01-29T22:12:03.277Z,87.82
2023-01-29T22:14:29.859Z,87.84
2023-01-29T22:16:56.328Z,87.42
2023-01-29T22:19:23.596Z,87.74
2023-01-29T22:21:51.400Z,87.42
2023-01-29T22:24:18.090Z,87.66
2023-01-29T22:26:44.511Z,87.40
2023-01-29T22:29:14.659Z,87.89
2023-01-29T22:31:40.992Z,87.09
2023-01-29T22:34:07.399Z,87.02
2023-01-29T22:36:33.789Z,87.29
2023-01-29T22:39:00.257Z,88.20
2023-01-29T22:41:26.593Z,87.28
2023-01-29T22:43:53.082Z,87.16
2023-01-29T22:46:19.765Z,87.11
2023-01-29T22:48:46.320Z,87.35
2023-01-29T22:51:13.871Z,86.92
2023-01-29T22:53:41.733Z,87.44
2023-01-29T22:56:08.707Z,87.23
2023-01-29T22:58:35.286Z,87.68
2023-01-29T23:01:01.990Z,87.84
2023-01-29T23:03:28.537Z,87.24
2023-01-29T23:05:55.029Z,87.98
2023-01-29T23:08:21.501Z,87.52
2023-01-29T23:10:47.847Z,87.70
2023-01-29T23:13:14.213Z,87.80
2023-01-29T23:15:40.675Z,87.58
2023-01-29T23:18:07.253Z,87.42
2023-01-29T23:20:33.660Z,87.48
2023-01-29T23:23:00.150Z,87.67
2023-01-29T23:25:45.231Z,87.71
2023-01-29T23:28:11.730Z,87.37
2023-01-29T23:30:38.256Z,87.87
2023-01-29T23:33:04.897Z,87.67
2023-01-29T23:35:31.356Z,88.31
2023-01-29T23:37:57.888Z,87.66
2023-01-29T23:40:24.330Z,88.05
2023-01-29T23:42:50.926Z,88.28
2023-01-29T23:45:17.295Z,87.70
2023-01-29T23:47:43.702Z,87.87
2023-01-29T23:50:10.480Z,87.31
2023-01-29T23:52:36.896Z,87.14
2023-01-29T23:55:03.560Z,87.60
2023-01-29T23:57:30.008Z,87.23
2023-01-29T23:59:56.372Z,86.95
